Terminal Aerodrome Forecast
Issued by NWS

Home | Current Version | Previous Version | Text Only | Print | Product List | Glossary On
Versions: 1 2 3 4 5 6 7 8 9 10 11 12 13 14 15 16 17 18 19 20 21 22 23 24 25 26 27 28 29 30 31 32 33
000
FTUS45 KGJT 260540
TAFASE
TAF
KASE 260540Z 2606/2706 VRB05KT P6SM VCSH OVC020
      TEMPO 2606/2610 4SM -SN BR OVC010
     FM261000 21005KT 5SM -SN BR OVC030
     FM261900 35005KT 4SM -SHSN BR OVC020
     FM270200 34005KT P6SM VCSH OVC020=

USA.gov is the U.S. government's official web portal to all federal, state and local government web resources and services.